createdAt,value
2018-08-12T00:00:34.381Z,14.87
2018-08-12T00:03:02.977Z,14.80
2018-08-12T00:05:31.077Z,14.75
2018-08-12T00:07:59.353Z,14.69
2018-08-12T00:10:27.727Z,14.68
2018-08-12T00:12:56.128Z,14.68
2018-08-12T00:15:29.781Z,14.66
2018-08-12T00:17:58.131Z,14.65
2018-08-12T00:20:26.236Z,14.65
2018-08-12T00:22:54.355Z,14.62
2018-08-12T00:25:23.689Z,14.60
2018-08-12T00:27:52.069Z,14.58
2018-08-12T00:30:20.549Z,14.56
2018-08-12T00:32:48.952Z,14.55
2018-08-12T00:35:18.180Z,14.54
2018-08-12T00:37:46.541Z,14.54
2018-08-12T00:40:15.764Z,14.51
2018-08-12T00:42:44.402Z,14.49
2018-08-12T00:45:32.692Z,14.48
2018-08-12T00:48:01.130Z,14.47
2018-08-12T00:50:51.373Z,14.45
2018-08-12T00:53:19.476Z,14.47
2018-08-12T00:55:48.748Z,14.46
2018-08-12T00:58:17.152Z,14.44
2018-08-12T01:00:45.275Z,14.42
2018-08-12T01:03:13.960Z,14.42
2018-08-12T01:05:42.084Z,14.43
2018-08-12T01:08:10.407Z,14.42
2018-08-12T01:10:38.531Z,14.40
2018-08-12T01:13:07.500Z,14.37
2018-08-12T01:15:35.599Z,14.35
2018-08-12T01:18:05.077Z,14.32
2018-08-12T01:20:33.756Z,14.31
2018-08-12T01:23:02.021Z,14.28
2018-08-12T01:25:30.308Z,14.23
2018-08-12T01:27:58.611Z,14.21
2018-08-12T01:30:27.081Z,14.20
2018-08-12T01:32:55.537Z,14.18
2018-08-12T01:35:23.876Z,14.18
2018-08-12T01:37:52.281Z,14.17
2018-08-12T01:40:20.788Z,14.15
2018-08-12T01:42:49.404Z,14.12
2018-08-12T01:45:19.488Z,14.05
2018-08-12T01:47:48.509Z,14.04
2018-08-12T01:50:18.252Z,14.04
2018-08-12T01:52:46.357Z,13.98
2018-08-12T01:55:14.848Z,13.93
2018-08-12T01:57:43.080Z,13.94
2018-08-12T02:00:14.420Z,13.98
2018-08-12T02:02:43.120Z,14.05
2018-08-12T02:05:11.508Z,14.09
2018-08-12T02:07:39.615Z,14.12
2018-08-12T02:12:54.804Z,14.15
2018-08-12T02:15:23.257Z,14.16
2018-08-12T02:17:58.796Z,14.17
2018-08-12T02:20:27.408Z,14.18
2018-08-12T02:22:56.016Z,14.18
2018-08-12T02:28:16.649Z,14.18
2018-08-12T02:30:45.036Z,14.21
2018-08-12T02:33:13.481Z,14.26
2018-08-12T02:35:41.606Z,14.28
2018-08-12T02:38:10.154Z,14.30
2018-08-12T02:40:38.648Z,14.32
2018-08-12T02:43:07.017Z,14.31
2018-08-12T02:45:35.574Z,14.28
2018-08-12T02:48:03.716Z,14.26
2018-08-12T02:53:25.620Z,14.21
2018-08-12T02:55:54.433Z,14.20
2018-08-12T02:58:22.741Z,14.15
2018-08-12T03:03:44.524Z,14.03
2018-08-12T03:06:13.033Z,13.95
2018-08-12T03:08:41.608Z,13.87
2018-08-12T03:11:10.345Z,13.80
2018-08-12T03:13:38.487Z,13.76
2018-08-12T03:16:06.612Z,13.74
2018-08-12T03:18:34.708Z,13.69
2018-08-12T03:21:03.825Z,13.64
2018-08-12T03:23:32.021Z,13.59
2018-08-12T03:26:00.804Z,13.52
2018-08-12T03:28:29.229Z,13.45
2018-08-12T03:30:57.984Z,13.42
2018-08-12T03:33:26.631Z,13.40
2018-08-12T03:35:55.037Z,13.41
2018-08-12T03:38:23.873Z,13.38
2018-08-12T03:40:53.153Z,13.39
2018-08-12T03:43:21.905Z,13.38
2018-08-12T03:45:50.947Z,13.36
2018-08-12T03:48:19.340Z,13.36
2018-08-12T03:50:49.436Z,13.38
2018-08-12T03:53:17.866Z,13.39
2018-08-12T03:55:46.755Z,13.39
2018-08-12T03:58:15.188Z,13.41
2018-08-12T04:00:43.460Z,13.42
2018-08-12T04:03:11.563Z,13.42
2018-08-12T04:05:39.713Z,13.43
2018-08-12T04:08:08.367Z,13.41
2018-08-12T04:10:36.718Z,13.37
2018-08-12T04:13:05.274Z,13.38
2018-08-12T04:15:33.539Z,13.38
2018-08-12T04:18:02.034Z,13.45
2018-08-12T04:20:30.441Z,13.50
2018-08-12T04:22:59.109Z,13.50
2018-08-12T04:28:21.328Z,13.51
2018-08-12T04:30:49.825Z,13.57
2018-08-12T04:33:18.423Z,13.61
2018-08-12T04:35:46.869Z,13.65
2018-08-12T04:38:15.021Z,13.68
2018-08-12T04:40:43.139Z,13.70
2018-08-12T04:43:11.691Z,13.72
2018-08-12T04:45:39.803Z,13.70
2018-08-12T04:48:08.160Z,13.70
2018-08-12T04:50:37.129Z,13.70
2018-08-12T04:53:05.725Z,13.70
2018-08-12T04:55:33.827Z,13.72
2018-08-12T04:58:01.955Z,13.74
2018-08-12T05:00:30.604Z,13.79
2018-08-12T05:02:59.425Z,13.83
2018-08-12T05:05:27.616Z,13.88
2018-08-12T05:07:56.353Z,13.89
2018-08-12T05:10:24.710Z,13.93
2018-08-12T05:12:53.364Z,14.00
2018-08-12T05:15:21.952Z,14.07
2018-08-12T05:21:05.496Z,14.14
2018-08-12T05:23:33.767Z,14.18
2018-08-12T05:31:49.251Z,14.46
2018-08-12T05:43:15.984Z,14.92
2018-08-12T05:45:44.092Z,15.08
2018-08-12T05:48:12.208Z,15.15
2018-08-12T05:50:40.627Z,15.23
2018-08-12T05:53:08.748Z,15.31
2018-08-12T05:55:37.200Z,15.42
2018-08-12T05:58:05.984Z,15.48
2018-08-12T06:00:34.972Z,15.50
2018-08-12T06:05:56.470Z,15.64
2018-08-12T06:08:25.051Z,15.72
2018-08-12T06:10:53.618Z,15.78
2018-08-12T06:13:22.482Z,15.85
2018-08-12T06:15:51.402Z,15.97
2018-08-12T06:18:19.711Z,16.08
2018-08-12T06:20:49.076Z,16.25
2018-08-12T06:23:29.561Z,16.37
2018-08-12T06:25:58.040Z,16.52
2018-08-12T06:28:26.492Z,16.61
2018-08-12T06:30:55.148Z,16.75
2018-08-12T06:33:23.248Z,16.91
2018-08-12T06:35:51.680Z,17.01
2018-08-12T06:38:20.028Z,17.06
2018-08-12T06:40:49.308Z,17.12
2018-08-12T06:43:17.723Z,17.19
2018-08-12T06:45:46.016Z,17.26
2018-08-12T06:48:34.904Z,17.39
2018-08-12T06:51:03.872Z,17.57
2018-08-12T06:53:32.028Z,17.74
2018-08-12T06:56:00.320Z,17.96
2018-08-12T07:04:14.384Z,18.66
2018-08-12T07:06:55.212Z,18.79
2018-08-12T07:09:31.896Z,18.99
2018-08-12T07:12:00.280Z,19.29
2018-08-12T07:14:29.191Z,19.60
2018-08-12T07:16:57.440Z,19.91
2018-08-12T07:19:26.237Z,20.18
2018-08-12T07:24:47.728Z,20.64
2018-08-12T07:27:16.568Z,20.87
2018-08-12T07:29:45.211Z,20.97
2018-08-12T07:35:06.584Z,20.99
2018-08-12T07:37:34.970Z,21.02
2018-08-12T07:40:04.736Z,21.06
2018-08-12T07:42:33.565Z,21.08
2018-08-12T07:45:02.655Z,21.09
2018-08-12T07:47:31.104Z,21.11
2018-08-12T07:49:59.553Z,21.12
2018-08-12T07:52:28.295Z,21.15
2018-08-12T07:54:56.600Z,21.23
2018-08-12T07:57:24.976Z,21.31
2018-08-12T07:59:53.664Z,21.39
2018-08-12T08:02:22.357Z,21.46
2018-08-12T08:04:50.488Z,21.57
2018-08-12T08:07:19.251Z,21.66
2018-08-12T08:09:47.371Z,21.76
2018-08-12T08:12:16.313Z,21.90
2018-08-12T08:14:44.461Z,22.12
2018-08-12T08:17:12.591Z,22.30
2018-08-12T08:19:41.577Z,22.51
2018-08-12T08:22:10.273Z,22.76
2018-08-12T08:24:38.620Z,22.73
2018-08-12T08:27:08.248Z,22.57
2018-08-12T08:29:36.907Z,22.58
2018-08-12T08:32:05.401Z,22.60
2018-08-12T08:34:33.935Z,22.57
2018-08-12T08:37:19.043Z,22.56
2018-08-12T08:39:56.805Z,22.57
2018-08-12T08:42:25.064Z,22.64
2018-08-12T08:44:53.699Z,22.67
2018-08-12T08:47:22.145Z,22.59
2018-08-12T08:49:50.843Z,22.64
2018-08-12T08:52:19.140Z,22.76
2018-08-12T08:54:47.671Z,22.98
2018-08-12T08:57:15.992Z,23.13
2018-08-12T08:59:45.841Z,23.13
2018-08-12T09:02:13.946Z,23.13
2018-08-12T09:04:42.344Z,23.12
2018-08-12T09:07:10.469Z,23.02
2018-08-12T09:09:38.818Z,22.86
2018-08-12T09:12:07.544Z,22.76
2018-08-12T09:14:36.332Z,22.81
2018-08-12T09:17:04.688Z,22.90
2018-08-12T09:19:43.772Z,23.00
2018-08-12T09:22:12.210Z,23.05
2018-08-12T09:24:40.888Z,22.99
2018-08-12T09:27:09.973Z,22.93
2018-08-12T09:29:38.435Z,22.93
2018-08-12T09:32:06.616Z,23.09
2018-08-12T09:34:46.912Z,23.30
2018-08-12T09:37:48.482Z,23.54
2018-08-12T09:40:17.704Z,23.77
2018-08-12T09:42:47.027Z,23.89
2018-08-12T09:45:17.497Z,24.05
2018-08-12T09:47:45.707Z,24.20
2018-08-12T09:50:17.364Z,24.41
2018-08-12T09:52:46.971Z,24.62
2018-08-12T09:55:15.916Z,24.81
2018-08-12T09:57:44.013Z,24.85
2018-08-12T10:00:20.139Z,24.92
2018-08-12T10:02:51.178Z,24.88
2018-08-12T10:05:19.729Z,24.93
2018-08-12T10:07:48.143Z,25.08
2018-08-12T10:10:16.935Z,25.25
2018-08-12T10:12:45.389Z,25.38
2018-08-12T10:15:15.069Z,25.33
2018-08-12T10:17:45.107Z,25.34
2018-08-12T10:20:13.596Z,25.49
2018-08-12T10:22:42.361Z,25.74
2018-08-12T10:25:10.933Z,25.86
2018-08-12T10:27:39.516Z,25.82
2018-08-12T10:30:09.654Z,26.00
2018-08-12T10:32:37.869Z,26.26
2018-08-12T10:35:06.733Z,26.34
2018-08-12T10:37:35.080Z,26.51
2018-08-12T10:40:03.220Z,26.75
2018-08-12T10:42:31.637Z,26.97
2018-08-12T10:44:59.809Z,27.24
2018-08-12T10:47:28.342Z,27.25
2018-08-12T10:49:56.908Z,27.00
2018-08-12T10:52:25.032Z,26.72
2018-08-12T10:54:53.501Z,26.63
2018-08-12T10:57:21.668Z,26.60
2018-08-12T10:59:50.024Z,26.64
2018-08-12T11:02:18.452Z,26.68
2018-08-12T11:04:46.975Z,26.64
2018-08-12T11:07:15.670Z,26.92
2018-08-12T11:09:44.337Z,27.28
2018-08-12T11:12:13.030Z,27.55
2018-08-12T11:14:41.327Z,27.67
2018-08-12T11:17:09.652Z,27.48
2018-08-12T11:19:38.378Z,27.36
2018-08-12T11:22:06.969Z,27.27
2018-08-12T11:24:35.429Z,27.22
2018-08-12T11:27:03.995Z,27.14
2018-08-12T11:29:32.509Z,27.03
2018-08-12T11:32:01.385Z,26.97
2018-08-12T11:34:30.076Z,26.95
2018-08-12T11:36:58.196Z,26.96
2018-08-12T11:39:26.626Z,26.90
2018-08-12T11:41:55.016Z,26.79
2018-08-12T11:44:23.479Z,26.65
2018-08-12T11:46:52.521Z,26.60
2018-08-12T11:49:20.769Z,26.63
2018-08-12T11:51:50.124Z,26.63
2018-08-12T11:54:18.231Z,26.73
2018-08-12T11:56:46.605Z,26.89
2018-08-12T11:59:15.151Z,27.06
2018-08-12T12:01:43.788Z,27.14
2018-08-12T12:04:12.221Z,27.07
2018-08-12T12:06:40.329Z,27.09
2018-08-12T12:09:10.212Z,27.16
2018-08-12T12:11:39.398Z,27.47
2018-08-12T12:14:08.917Z,27.96
2018-08-12T12:16:37.899Z,28.52
2018-08-12T12:19:06.292Z,29.03
2018-08-12T12:21:35.350Z,29.19
2018-08-12T12:24:04.077Z,29.16
2018-08-12T12:26:32.433Z,29.12
2018-08-12T12:29:00.841Z,29.19
2018-08-12T12:31:29.203Z,29.45
2018-08-12T12:33:58.687Z,29.60
2018-08-12T12:36:28.264Z,29.81
2018-08-12T12:41:51.278Z,29.93
2018-08-12T12:44:19.641Z,29.89
2018-08-12T12:46:49.703Z,29.95
2018-08-12T12:49:18.005Z,29.83
2018-08-12T12:51:46.684Z,29.55
2018-08-12T12:54:15.344Z,29.46
2018-08-12T12:56:44.192Z,29.54
2018-08-12T12:59:12.858Z,29.81
2018-08-12T13:01:41.325Z,30.00
2018-08-12T13:04:09.709Z,30.22
2018-08-12T13:06:38.564Z,30.44
2018-08-12T13:09:08.779Z,30.70
2018-08-12T13:11:37.073Z,30.71
2018-08-12T13:14:05.856Z,30.82
2018-08-12T13:16:34.092Z,30.77
2018-08-12T13:19:02.248Z,30.50
2018-08-12T13:21:30.348Z,30.18
2018-08-12T13:23:58.456Z,30.05
2018-08-12T13:26:27.192Z,30.02
2018-08-12T13:28:55.572Z,29.99
2018-08-12T13:31:24.305Z,30.08
2018-08-12T13:33:52.456Z,30.15
2018-08-12T13:36:20.908Z,30.24
2018-08-12T13:38:50.665Z,30.20
2018-08-12T13:41:18.991Z,29.99
2018-08-12T13:43:47.465Z,29.91
2018-08-12T13:46:15.824Z,29.92
2018-08-12T13:48:44.469Z,30.02
2018-08-12T13:51:13.235Z,30.24
2018-08-12T13:53:41.588Z,30.53
2018-08-12T13:56:09.716Z,30.69
2018-08-12T13:58:38.444Z,30.70
2018-08-12T14:01:07.351Z,30.64
2018-08-12T14:03:35.465Z,30.40
2018-08-12T14:06:04.440Z,30.17
2018-08-12T14:08:32.767Z,30.03
2018-08-12T14:11:01.556Z,29.82
2018-08-12T14:13:30.020Z,29.67
2018-08-12T14:15:58.747Z,29.89
2018-08-12T14:18:27.164Z,30.21
2018-08-12T14:20:56.155Z,30.33
2018-08-12T14:23:24.452Z,30.30
2018-08-12T14:25:53.154Z,30.19
2018-08-12T14:28:21.883Z,30.01
2018-08-12T14:30:50.632Z,29.95
2018-08-12T14:33:19.208Z,30.02
2018-08-12T14:35:47.645Z,30.00
2018-08-12T14:38:15.772Z,30.03
2018-08-12T14:40:44.127Z,30.07
2018-08-12T14:43:12.589Z,29.93
2018-08-12T14:45:40.721Z,29.76
2018-08-12T14:48:09.230Z,29.68
2018-08-12T14:50:37.539Z,29.52
2018-08-12T14:53:06.280Z,29.43
2018-08-12T14:55:34.717Z,29.47
2018-08-12T14:58:02.846Z,29.67
2018-08-12T15:00:31.256Z,29.87
2018-08-12T15:02:59.699Z,30.00
2018-08-12T15:05:28.321Z,30.16
2018-08-12T15:07:56.448Z,30.21
2018-08-12T15:10:25.075Z,30.24
2018-08-12T15:12:53.792Z,30.32
2018-08-12T15:15:22.180Z,30.31
2018-08-12T15:17:51.015Z,30.24
2018-08-12T15:20:19.489Z,30.25
2018-08-12T15:22:47.665Z,30.24
2018-08-12T15:25:18.484Z,30.35
2018-08-12T15:27:47.085Z,30.38
2018-08-12T15:30:15.231Z,30.28
2018-08-12T15:32:43.386Z,30.15
2018-08-12T15:35:11.831Z,30.01
2018-08-12T15:37:40.298Z,29.84
2018-08-12T15:40:10.606Z,29.77
2018-08-12T15:42:38.912Z,29.69
2018-08-12T15:45:09.383Z,29.74
2018-08-12T15:47:38.032Z,29.81
2018-08-12T15:50:07.404Z,29.94
2018-08-12T15:52:35.533Z,29.96
2018-08-12T15:55:04.292Z,29.95
2018-08-12T15:57:32.409Z,29.88
2018-08-12T16:00:01.237Z,29.73
2018-08-12T16:02:30.021Z,29.70
2018-08-12T16:04:58.742Z,29.61
2018-08-12T16:07:26.924Z,29.52
2018-08-12T16:09:55.625Z,29.55
2018-08-12T16:12:23.969Z,29.57
2018-08-12T16:14:52.584Z,29.46
2018-08-12T16:17:21.064Z,29.38
2018-08-12T16:19:50.891Z,29.30
2018-08-12T16:22:19.343Z,29.37
2018-08-12T16:24:47.625Z,29.48
2018-08-12T16:27:15.733Z,29.45
2018-08-12T16:29:43.899Z,29.37
2018-08-12T16:32:12.461Z,29.30
2018-08-12T16:34:40.785Z,29.17
2018-08-12T16:37:09.424Z,29.12
2018-08-12T16:39:37.775Z,29.05
2018-08-12T16:42:06.142Z,28.97
2018-08-12T16:44:34.741Z,28.90
2018-08-12T16:47:02.860Z,28.80
2018-08-12T16:52:05.638Z,28.67
2018-08-12T16:54:34.072Z,28.64
2018-08-12T16:57:02.460Z,28.60
2018-08-12T16:59:30.746Z,28.59
2018-08-12T17:01:59.203Z,28.61
2018-08-12T17:04:27.978Z,28.61
2018-08-12T17:06:57.035Z,28.63
2018-08-12T17:09:25.816Z,28.58
2018-08-12T17:11:54.273Z,28.53
2018-08-12T17:14:22.552Z,28.47
2018-08-12T17:16:51.135Z,28.45
2018-08-12T17:19:20.048Z,28.44
2018-08-12T17:21:48.149Z,28.42
2018-08-12T17:24:16.257Z,28.38
2018-08-12T17:26:44.823Z,28.35
2018-08-12T17:29:13.352Z,28.31
2018-08-12T17:31:41.884Z,28.28
2018-08-12T17:34:22.473Z,28.30
2018-08-12T17:36:51.271Z,28.31
2018-08-12T17:39:20.161Z,28.35
2018-08-12T17:41:48.773Z,28.35
2018-08-12T17:44:17.115Z,28.29
2018-08-12T17:46:45.994Z,28.26
2018-08-12T17:49:14.891Z,28.22
2018-08-12T17:51:43.324Z,28.16
2018-08-12T17:54:12.169Z,28.12
2018-08-12T17:56:40.621Z,28.08
2018-08-12T17:59:09.594Z,28.04
2018-08-12T18:01:38.390Z,28.00
2018-08-12T18:04:07.189Z,27.99
2018-08-12T18:06:35.301Z,27.96
2018-08-12T18:09:05.560Z,27.91
2018-08-12T18:11:33.669Z,27.86
2018-08-12T18:14:02.353Z,27.78
2018-08-12T18:16:30.905Z,27.72
2018-08-12T18:18:59.035Z,27.67
2018-08-12T18:21:27.381Z,27.61
2018-08-12T18:23:56.128Z,27.54
2018-08-12T18:26:24.882Z,27.47
2018-08-12T18:28:53.308Z,27.40
2018-08-12T18:31:21.804Z,27.34
2018-08-12T18:33:50.994Z,27.26
2018-08-12T18:36:19.089Z,27.17
2018-08-12T18:38:47.821Z,27.07
2018-08-12T18:41:16.156Z,26.97
2018-08-12T18:43:44.288Z,26.85
2018-08-12T18:46:13.048Z,26.72
2018-08-12T18:48:41.220Z,26.59
2018-08-12T18:51:09.658Z,26.47
2018-08-12T18:53:37.768Z,26.35
2018-08-12T18:56:06.690Z,26.22
2018-08-12T18:58:35.012Z,26.11
2018-08-12T19:01:03.517Z,25.99
2018-08-12T19:03:31.929Z,25.89
2018-08-12T19:06:00.308Z,25.83
2018-08-12T19:08:29.118Z,25.79
2018-08-12T19:10:58.252Z,25.75
2018-08-12T19:13:26.359Z,25.69
2018-08-12T19:15:55.311Z,25.61
2018-08-12T19:18:23.564Z,25.49
2018-08-12T19:20:52.007Z,25.40
2018-08-12T19:23:20.721Z,25.30
2018-08-12T19:25:49.507Z,25.21
2018-08-12T19:28:18.212Z,25.16
2018-08-12T19:30:46.688Z,25.10
2018-08-12T19:33:15.084Z,25.02
2018-08-12T19:35:43.167Z,24.92
2018-08-12T19:38:12.408Z,24.82
2018-08-12T19:40:41.052Z,24.76
2018-08-12T19:43:09.429Z,24.67
2018-08-12T19:45:37.877Z,24.59
2018-08-12T19:48:06.603Z,24.51
2018-08-12T19:50:35.401Z,24.46
2018-08-12T19:53:04.432Z,24.41
2018-08-12T19:55:33.623Z,24.36
2018-08-12T19:58:02.390Z,24.30
2018-08-12T20:00:31.055Z,24.25
2018-08-12T20:02:59.197Z,24.20
2018-08-12T20:05:27.408Z,24.13
2018-08-12T20:07:56.000Z,24.07
2018-08-12T20:10:24.342Z,24.02
2018-08-12T20:12:52.806Z,23.96
2018-08-12T20:15:21.092Z,23.91
2018-08-12T20:17:49.408Z,23.89
2018-08-12T20:20:17.981Z,23.88
2018-08-12T20:22:46.163Z,23.87
2018-08-12T20:25:14.326Z,23.81
2018-08-12T20:27:42.601Z,23.75
2018-08-12T20:30:12.277Z,23.73
2018-08-12T20:32:41.099Z,23.76
2018-08-12T20:35:09.753Z,23.77
2018-08-12T20:37:38.417Z,23.77
2018-08-12T20:40:07.023Z,23.77
2018-08-12T20:42:35.564Z,23.71
2018-08-12T20:45:04.658Z,23.66
2018-08-12T20:47:33.639Z,23.62
2018-08-12T20:50:02.048Z,23.59
2018-08-12T20:52:30.197Z,23.58
2018-08-12T20:54:58.483Z,23.55
2018-08-12T20:57:26.593Z,23.47
2018-08-12T20:59:56.669Z,23.41
2018-08-12T21:02:25.531Z,23.31
2018-08-12T21:04:53.894Z,23.24
2018-08-12T21:07:22.369Z,23.19
2018-08-12T21:09:51.441Z,23.13
2018-08-12T21:12:19.965Z,23.10
2018-08-12T21:14:48.580Z,23.09
2018-08-12T21:17:17.005Z,23.05
2018-08-12T21:19:45.292Z,22.99
2018-08-12T21:22:13.725Z,22.96
2018-08-12T21:24:42.704Z,22.95
2018-08-12T21:27:14.492Z,22.95
2018-08-12T21:29:42.608Z,22.95
2018-08-12T21:32:10.718Z,22.91
2018-08-12T21:34:39.693Z,22.84
2018-08-12T21:37:08.574Z,22.83
2018-08-12T21:39:37.103Z,22.82
2018-08-12T21:42:05.529Z,22.79
2018-08-12T21:44:33.637Z,22.70
2018-08-12T21:47:01.741Z,22.64
2018-08-12T21:49:29.851Z,22.60
2018-08-12T21:51:58.520Z,22.59
2018-08-12T21:54:26.871Z,22.59
2018-08-12T21:56:55.568Z,22.57
2018-08-12T21:59:24.213Z,22.57
2018-08-12T22:01:52.633Z,22.54
2018-08-12T22:04:21.077Z,22.55
2018-08-12T22:06:49.397Z,22.59
2018-08-12T22:09:17.756Z,22.62
2018-08-12T22:11:46.216Z,22.61
2018-08-12T22:14:14.379Z,22.59
2018-08-12T22:16:42.685Z,22.55
2018-08-12T22:19:11.057Z,22.53
2018-08-12T22:21:39.325Z,22.50
2018-08-12T22:24:07.986Z,22.46
2018-08-12T22:26:37.038Z,22.43
2018-08-12T22:29:05.993Z,22.40
2018-08-12T22:31:34.467Z,22.37
2018-08-12T22:34:02.836Z,22.35
2018-08-12T22:36:31.225Z,22.35
2018-08-12T22:38:59.640Z,22.32
2018-08-12T22:41:28.296Z,22.27
2018-08-12T22:43:57.230Z,22.22
2018-08-12T22:46:25.528Z,22.15
2018-08-12T22:48:53.669Z,22.15
2018-08-12T22:51:22.025Z,22.14
2018-08-12T22:53:52.073Z,22.12
2018-08-12T22:56:20.512Z,22.09
2018-08-12T22:58:48.624Z,22.09
2018-08-12T23:01:16.738Z,22.05
2018-08-12T23:03:45.393Z,22.05
2018-08-12T23:06:13.836Z,22.06
2018-08-12T23:08:42.533Z,22.04
2018-08-12T23:11:10.632Z,22.03
2018-08-12T23:13:38.745Z,22.03
2018-08-12T23:16:20.622Z,22.03
2018-08-12T23:18:48.758Z,22.00
2018-08-12T23:21:17.679Z,21.91
2018-08-12T23:23:46.976Z,21.87
2018-08-12T23:26:17.519Z,21.85
2018-08-12T23:28:46.287Z,21.83
2018-08-12T23:31:14.859Z,21.80
2018-08-12T23:33:43.675Z,21.79
2018-08-12T23:36:11.883Z,21.77
2018-08-12T23:38:39.996Z,21.78
2018-08-12T23:41:09.369Z,21.78
2018-08-12T23:43:37.722Z,21.77
2018-08-12T23:46:06.173Z,21.74
2018-08-12T23:48:35.167Z,21.70
2018-08-12T23:51:03.696Z,21.66
2018-08-12T23:53:32.169Z,21.62
2018-08-12T23:56:00.573Z,21.60
2018-08-12T23:58:28.670Z,21.53
